• Join FlightAware (Why Join?)
  • Login
  • US Flag GB Flag 
03:44 EST


 

Airport Tracker/Info


-or-


 

Live Flight TrackerFlight Track Log ✈ XOJ793 ✈ 12-Jul-2014 ✈ KVNY - KEWB

Flight Track Log - Related Links

Times and Time Zones

All times are in EDT time to prevent confusion due to time zone crossing. See the XOJ793 flight status page for this flight to view local times or setup timezone preferences in your user account.

Time Position Orientation Groundspeed Altitude Reporting Facility
EDT Latitude Longitude Course Direction KTS MPH feet Rate Location/Type
10:14 34.1667 -118.4747 93° East 217 250 2,000  Level Los Angeles Center
10:15 34.1644 -118.4147 93° East 219 252 4,500 2,220 Climbing Los Angeles Center
10:16 34.2361 -118.4444 341° North 236 272 6,700 1,980 Climbing Los Angeles Center
10:17 34.3089 -118.4664 346° North 280 322 8,600 1,980 Climbing Los Angeles Center
10:18 34.3744 -118.4111 35° Northeast 282 325 10,800 1,800 Climbing Los Angeles Center
10:19 34.4425 -118.3486 37° Northeast 307 353 12,300 1,380 Climbing Los Angeles Center
10:20 34.5042 -118.2675 47° Northeast 325 374 13,700 1,140 Climbing Los Angeles Center
10:21 34.5619 -118.1750 53° Northeast 342 394 14,700 1,080 Climbing Los Angeles Center
10:22 34.6253 -118.0647 55° Northeast 358 412 16,000 1,140 Climbing Los Angeles Center
10:23 34.6408 -117.9439 81° East 361 415 17,100 960 Climbing Los Angeles Center
10:24 34.6544 -117.8189 82° East 372 428 18,000 1,020 Climbing Los Angeles Center
10:25 34.6689 -117.6917 82° East 378 435 19,200 1,140 Climbing Los Angeles Center
10:26 34.6817 -117.5625 83° East 384 442 20,400 1,140 Climbing Los Angeles Center
10:27 34.6992 -117.4036 82° East 398 458 21,600 1,140 Climbing Los Angeles Center
10:28 34.7136 -117.2683 83° East 405 466 22,800 1,140 Climbing Los Angeles Center
10:29 34.7281 -117.1300 83° East 412 474 24,000 1,200 Climbing Los Angeles Center
10:30 34.7419 -116.9903 83° East 417 480 25,300 1,260 Climbing Los Angeles Center
10:31 34.7561 -116.8500 83° East 418 481 26,600 1,260 Climbing Los Angeles Center
10:32 34.7783 -116.6786 81° East 425 489 27,900 1,200 Climbing Los Angeles Center
10:33 34.8172 -116.5394 71° East 431 496 29,100 1,020 Climbing Los Angeles Center
10:34 34.8556 -116.3969 72° East 443 510 30,100 960 Climbing Los Angeles Center
10:35 34.8953 -116.2517 72° East 450 518 31,100 780 Climbing Los Angeles Center
10:36 34.9331 -116.1039 73° East 453 521 31,800 720 Climbing Los Angeles Center
10:37 34.9733 -115.9514 72° East 467 537 32,700 960 Climbing Los Angeles Center
10:38 35.0236 -115.7622 72° East 483 556 33,800 1,020 Climbing Los Angeles Center
10:39 35.0644 -115.6042 72° East 488 562 34,900 1,200 Climbing Los Angeles Center
10:40 35.1069 -115.4472 72° East 488 562 36,400 1,380 Climbing Los Angeles Center
10:41 35.1458 -115.2925 73° East 485 558 37,800 1,320 Climbing Los Angeles Center
10:42 35.1850 -115.1431 72° East 478 550 39,200 1,200 Climbing Los Angeles Center
10:43 35.2319 -114.9597 73° East 474 545 40,400 1,020 Climbing Los Angeles Center
10:45 35.2714 -114.8056 73° East 474 545 41,400 720 Climbing Los Angeles Center
10:46 35.3108 -114.6522 72° East 474 545 42,000 480 Climbing Los Angeles Center
10:47 35.3472 -114.4983 74° East 471 542 42,500 480 Climbing Los Angeles Center
10:48 35.3864 -114.3417 73° East 477 549 43,000 480 Climbing Los Angeles Center
10:49 35.4253 -114.1811 73° East 490 564 43,500 480 Climbing Los Angeles Center
10:50 35.4700 -114.0019 73° East 488 562 44,000 360 Climbing Los Angeles Center
10:51 35.5078 -113.8442 74° East 483 556 44,300 240 Climbing Los Angeles Center
10:52 35.5472 -113.6856 73° East 487 560 44,600 240 Climbing Los Angeles Center
10:53 35.5858 -113.5261 73° East 487 560 44,800 180 Climbing Los Angeles Center
10:54 35.6253 -113.3658 73° East 487 560 45,000 60 Climbing Los Angeles Center
10:55 35.6619 -113.2025 75° East 481 554 45,000  Level Los Angeles Center
10:56 35.7003 -113.0464 73° East 483 556 45,000  Level Los Angeles Center
10:57 35.7453 -112.8517 74° East 488 562 45,000  Level Los Angeles Center
10:58 35.7831 -112.6911 74° East 488 562 45,000  Level Los Angeles Center
10:59 35.8189 -112.5314 74° East 487 560 45,000  Level Los Angeles Center
11:00 35.8558 -112.3719 74° East 487 560 45,000  Level Los Angeles Center
11:01 35.8925 -112.2131 74° East 486 559 45,000  Level Los Angeles Center
11:02 35.9286 -112.0544 74° East 484 557 45,000  Level Los Angeles Center
11:03 35.9689 -111.8733 75° East 483 556 45,000  Level Los Angeles Center
11:04 36.0044 -111.7144 74° East 482 555 45,000  Level Los Angeles Center
11:05 36.0392 -111.5572 75° East 481 554 45,000  Level Los Angeles Center
11:06 36.0744 -111.3994 74° East 480 552 45,000  Level Los Angeles Center
11:07 36.1089 -111.2417 75° East 477 549 45,000  Level Los Angeles Center
11:08 36.1639 -111.0589 70° East 477 549 45,000  Level Los Angeles Center
11:09 36.2175 -110.8778 70° East 475 547 45,000  Level Denver Center
11:10 36.2639 -110.7250 69° East 475 547 45,000  Level Denver Center
11:11 36.3089 -110.5719 70° East 475 547 45,000  Level Denver Center
11:13 36.3544 -110.4194 70° East 475 547 45,000  Level Denver Center
11:14 36.3989 -110.2647 70° East 475 547 45,000  Level Denver Center
11:15 36.4478 -110.0950 70° East 475 547 45,000  Level Denver Center
11:16 36.5000 -109.9203 70° East 478 550 45,000  Level Denver Center
11:17 36.5428 -109.7714 70° East 478 550 45,000  Level Denver Center
11:18 36.5922 -109.5964 71° East 478 550 45,000  Level Denver Center
11:19 36.6361 -109.4453 70° East 479 551 45,000  Level Denver Center
11:20 36.6781 -109.2961 71° East 479 551 45,000  Level Denver Center
11:21 36.7281 -109.1200 70° East 479 551 45,000  Level Denver Center
11:22 36.7700 -108.9700 71° East 479 551 45,000  Level Denver Center
11:23 36.8197 -108.7919 71° East 480 552 45,000  Level Denver Center
11:24 36.8611 -108.6394 71° East 481 554 45,000  Level Denver Center
11:25 36.9094 -108.4625 71° East 481 554 45,000  Level Denver Center
11:26 36.9514 -108.3100 71° East 481 554 45,000  Level Denver Center
11:27 36.9989 -108.1328 71° East 481 554 45,000  Level Denver Center
11:28 37.0406 -107.9794 71° East 482 555 45,000  Level Denver Center
11:29 37.0822 -107.8267 71° East 482 555 45,000  Level Denver Center
11:30 37.1297 -107.6467 72° East 483 556 45,000  Level Denver Center
11:31 37.1706 -107.4919 72° East 487 560 45,000  Level Denver Center
11:32 37.2192 -107.3100 71° East 489 563 45,000  Level Denver Center
11:33 37.2592 -107.1531 72° East 490 564 45,000  Level Denver Center
11:34 37.3064 -106.9703 72° East 491 565 45,000  Level Denver Center
11:35 37.3478 -106.8131 72° East 492 566 45,000  Level Denver Center
11:36 37.3936 -106.6275 73° East 494 568 45,000  Level Denver Center
11:37 37.4350 -106.4697 72° East 494 568 45,000  Level Denver Center
11:38 37.4825 -106.2833 72° East 498 573 45,000  Level Denver Center
11:39 37.5214 -106.1242 73° East 498 573 45,000  Level Denver Center
11:40 37.5642 -105.9461 73° East 498 573 45,000  Level Denver Center
11:42 37.6050 -105.7803 73° East 498 573 45,000  Level Denver Center
11:43 37.6456 -105.6139 73° East 497 572 45,000  Level Denver Center
11:44 37.6864 -105.4486 73° East 497 572 45,000  Level Denver Center
11:45 37.7258 -105.2828 73° East 496 571 45,000  Level Denver Center
11:46 37.7753 -105.0847 72° East 495 570 45,000  Level Denver Center
11:47 37.8133 -104.9181 74° East 494 568 45,000  Level Denver Center
11:48 37.8533 -104.7508 73° East 494 568 45,000  Level Denver Center
11:49 37.8925 -104.5831 73° East 495 570 45,000  Level Denver Center
11:50 37.9319 -104.4161 73° East 494 568 45,000  Level Denver Center
11:51 37.9719 -104.2458 73° East 497 572 45,000  Level Denver Center
11:52 38.0111 -104.0761 74° East 498 573 45,000  Level Denver Center
11:53 38.0575 -103.8728 74° East 498 573 45,000  Level Denver Center
11:54 38.0958 -103.7025 74° East 498 573 45,000  Level Denver Center
11:55 38.1347 -103.5331 74° East 498 573 45,000  Level Denver Center
11:56 38.1717 -103.3633 74° East 499 574 45,000  Level Denver Center
11:57 38.2092 -103.1928 74° East 499 574 45,000  Level Denver Center
11:58 38.2503 -103.0036 74° East 502 578 45,000  Level Denver Center
11:59 38.2858 -102.8397 75° East 502 578 45,000  Level Denver Center
12:00 38.3275 -102.6461 75° East 502 578 45,000  Level Denver Center
12:01 38.3636 -102.4797 74° East 506 582 45,000  Level Denver Center
12:02 38.4044 -102.2864 75° East 506 582 45,000  Level Denver Center
12:03 38.4392 -102.1194 75° East 506 582 45,000  Level Denver Center
12:04 38.4800 -101.9247 75° East 506 582 45,000  Level Denver Center
12:05 38.5144 -101.7561 75° East 508 585 45,000  Level Denver Center
12:06 38.5556 -101.5600 75° East 509 586 45,000  Level Denver Center
12:07 38.5894 -101.3917 76° East 509 586 45,000  Level Denver Center
12:08 38.6289 -101.1950 76° East 509 586 45,000  Level Denver Center
12:09 38.6631 -101.0261 75° East 510 587 45,000  Level Denver Center
12:10 38.6967 -100.8583 76° East 510 587 45,000  Level Denver Center
12:12 38.7344 -100.6617 76° East 509 586 45,000  Level Denver Center
12:13 38.7678 -100.4911 76° East 512 589 45,000  Level Denver Center
12:14 38.8053 -100.2933 76° East 512 589 45,000  Level Denver Center
12:15 38.8381 -100.1239 76° East 509 586 45,000  Level Kansas City Center
12:16 38.8756 -99.9264 76° East 509 586 45,000  Level Kansas City Center
12:17 38.9056 -99.7575 77° East 509 586 45,000  Level Kansas City Center
12:18 38.9428 -99.5608 76° East 509 586 45,000  Level Kansas City Center
12:19 38.9722 -99.4036 76° East 508 585 45,000  Level Kansas City Center
12:20 39.0036 -99.2272 77° East 508 585 45,000  Level Kansas City Center
12:21 39.0431 -99.0142 77° East 509 586 45,000  Level Kansas City Center
12:22 39.0761 -98.8369 76° East 509 586 45,000  Level Kansas City Center
12:23 39.1078 -98.6592 77° East 509 586 45,000  Level Kansas City Center
12:24 39.1383 -98.4822 77° East 509 586 45,000  Level Kansas City Center
12:25 39.1697 -98.3031 77° East 509 586 45,000  Level Kansas City Center
12:26 39.2003 -98.1244 77° East 509 586 45,000  Level Kansas City Center
12:27 39.2356 -97.9167 78° East 509 586 45,000  Level Kansas City Center
12:28 39.2644 -97.7453 78° East 513 590 45,000  Level Kansas City Center
12:29 39.2953 -97.5647 78° East 517 595 45,000  Level Kansas City Center
12:30 39.3256 -97.3778 78° East 510 587 45,000  Level Kansas City Center
12:31 39.3572 -97.1967 77° East 511 588 45,000  Level Kansas City Center
12:32 39.3917 -96.9792 78° East 513 590 45,000  Level Kansas City Center
12:33 39.4203 -96.7972 78° East 514 592 45,000  Level Kansas City Center
12:34 39.4503 -96.6167 78° East 514 592 45,000  Level Kansas City Center
12:35 39.4797 -96.4264 79° East 515 593 45,000  Level Kansas City Center
12:36 39.5069 -96.2444 79° East 515 593 45,000  Level Kansas City Center
12:37 39.5339 -96.0692 79° East 518 596 45,000  Level Kansas City Center
12:38 39.5678 -95.8494 79° East 517 595 45,000  Level Kansas City Center
12:39 39.5947 -95.6669 79° East 515 593 45,000  Level Kansas City Center
12:41 39.6219 -95.4831 79° East 515 593 45,000  Level Kansas City Center
12:42 39.6486 -95.2992 79° East 515 593 45,000  Level Kansas City Center
12:43 39.6764 -95.1142 79° East 516 594 45,000  Level Kansas City Center
12:44 39.7014 -94.9292 80° East 516 594 45,000  Level Kansas City Center
12:45 39.7275 -94.7464 79° East 516 594 45,000  Level Kansas City Center
12:46 39.7531 -94.5614 80° East 516 594 45,000  Level Kansas City Center
12:47 39.7831 -94.3411 80° East 516 594 45,000  Level Kansas City Center
12:48 39.8083 -94.1558 80° East 517 595 45,000  Level Kansas City Center
12:49 39.8328 -93.9650 80° East 518 596 45,000  Level Kansas City Center
12:50 39.8561 -93.7819 81° East 519 597 45,000  Level Kansas City Center
12:51 39.8806 -93.5994 80° East 519 597 45,000  Level Kansas City Center
12:52 39.9047 -93.4150 80° East 518 596 45,000  Level Kansas City Center
12:53 39.9328 -93.1961 80° East 519 597 45,000  Level Kansas City Center
12:54 39.9556 -93.0139 81° East 518 596 45,000  Level Kansas City Center
12:55 39.9786 -92.8286 81° East 520 598 45,000  Level Kansas City Center
12:56 40.0000 -92.6456 81° East 520 598 45,000  Level Kansas City Center
12:57 40.0267 -92.4264 81° East 521 600 45,000  Level Kansas City Center
12:58 40.0486 -92.2442 81° East 521 600 45,000  Level Kansas City Center
12:59 40.0703 -92.0619 81° East 519 597 45,000  Level Kansas City Center
13:00 40.0917 -91.8772 81° East 519 597 45,000  Level Kansas City Center
13:01 40.1164 -91.6547 82° East 520 598 45,000  Level Kansas City Center
13:02 40.1383 -91.4681 81° East 521 600 45,000  Level Kansas City Center
13:03 40.1575 -91.2811 82° East 522 601 45,000  Level Kansas City Center
13:04 40.1786 -91.0944 82° East 522 601 45,000  Level Kansas City Center
13:05 40.1975 -90.9067 82° East 522 601 45,000  Level Kansas City Center
13:06 40.2214 -90.6828 82° East 522 601 45,000  Level Kansas City Center
13:07 40.2422 -90.4969 82° East 522 601 45,000  Level Kansas City Center
13:08 40.2608 -90.3108 82° East 521 600 45,000  Level Kansas City Center
13:09 40.2786 -90.1272 83° East 518 596 45,000  Level Kansas City Center
13:11 40.2961 -89.9417 83° East 518 596 45,000  Level Kansas City Center
13:12 40.3164 -89.7200 83° East 518 596 45,000  Level Kansas City Center
13:13 40.3339 -89.5336 83° East 518 596 45,000  Level Kansas City Center
13:14 40.3511 -89.3478 83° East 518 596 45,000  Level Kansas City Center
13:15 40.3692 -89.1619 83° East 518 596 45,000  Level Kansas City Center
13:16 40.3864 -88.9750 83° East 518 596 45,000  Level Kansas City Center
13:17 40.4053 -88.7494 84° East 519 597 45,000  Level Kansas City Center
13:18 40.4208 -88.5617 84° East 519 597 45,000  Level Kansas City Center
13:19 40.4364 -88.3725 84° East 519 597 45,000  Level Kansas City Center
13:20 40.4567 -88.1339 84° East 521 600 45,000  Level Chicago Center
13:21 40.4719 -87.9456 84° East 521 600 45,000  Level Chicago Center
13:22 40.4869 -87.7578 84° East 521 600 45,000  Level Chicago Center
13:23 40.5047 -87.5319 84° East 522 601 45,000  Level Chicago Center
13:24 40.5178 -87.3472 85° East 516 594 45,000  Level Chicago Center
13:25 40.5328 -87.1600 84° East 516 594 45,000  Level Chicago Center
13:26 40.5472 -86.9536 85° East 519 597 45,000  Level Chicago Center
13:27 40.5606 -86.7639 85° East 520 598 45,000  Level Chicago Center
13:28 40.5733 -86.5739 85° East 520 598 45,000  Level Chicago Center
13:29 40.5867 -86.3869 85° East 517 595 45,000  Level Chicago Center
13:30 40.5983 -86.1958 85° East 518 596 45,000  Level Chicago Center
13:31 40.6106 -86.0081 85° East 517 595 45,000  Level Chicago Center
13:32 40.6217 -85.8203 85° East 515 593 45,000  Level Chicago Center
13:33 40.6356 -85.5953 85° East 515 593 45,000  Level Chicago Center
13:35 40.6458 -85.4078 86° East 514 592 45,000  Level Chicago Center
13:36 40.6564 -85.2178 86° East 517 595 45,000  Level Chicago Center
13:37 40.6667 -85.0128 86° East 525 604 45,000  Level Chicago Center
13:38 40.6833 -84.6978 86° East 517 595 45,000  Level Cleveland Center
13:39 40.6919 -84.5086 87° East 517 595 45,000  Level Cleveland Center
13:40 40.7019 -84.3189 86° East 517 595 45,000  Level Cleveland Center
13:41 40.7125 -84.0911 86° East 517 595 45,000  Level Cleveland Center
13:42 40.7217 -83.9003 86° East 518 596 45,000  Level Cleveland Center
13:44 40.7294 -83.7103 87° East 518 596 45,000  Level Cleveland Center
13:45 40.7367 -83.5225 87° East 514 592 45,000  Level Cleveland Center
13:46 40.7442 -83.3314 87° East 518 596 45,000  Level Cleveland Center
13:47 40.7519 -83.1417 87° East 518 596 45,000  Level Cleveland Center
13:48 40.7583 -82.9522 87° East 517 595 45,000  Level Cleveland Center
13:49 40.7653 -82.7533 87° East 516 594 45,000  Level Cleveland Center
13:51 40.7783 -82.3378 87° East 519 597 45,000  Level Cleveland Center
13:52 40.7842 -82.1486 88° East 519 597 45,000  Level Cleveland Center
13:53 40.7892 -81.9567 88° East 519 597 45,000  Level Cleveland Center
13:54 40.7944 -81.7669 88° East 519 597 45,000  Level Cleveland Center
13:55 40.7994 -81.5778 88° East 519 597 45,000  Level Cleveland Center
13:56 40.8042 -81.3561 88° East 519 597 45,000  Level Cleveland Center
13:57 40.8083 -81.1669 88° East 517 595 45,000  Level Cleveland Center
13:58 40.8117 -80.9917 89° East 514 592 45,000  Level Cleveland Center
13:59 40.8150 -80.8025 89° East 513 590 45,000  Level Cleveland Center
14:00 40.8181 -80.5983 89° East 517 595 45,000  Level Cleveland Center
14:01 40.8200 -80.4078 89° East 517 595 45,000  Level Cleveland Center
14:02 40.8275 -80.1942 87° East 517 595 45,000  Level Cleveland Center
14:03 40.8711 -80.0131 72° East 510 587 45,000  Level Cleveland Center
14:04 40.9136 -79.8339 73° East 508 585 45,000  Level Cleveland Center
14:05 40.9556 -79.6539 73° East 507 583 45,000  Level Cleveland Center
14:06 40.9961 -79.4750 73° East 507 583 45,000  Level Cleveland Center
14:07 41.0372 -79.2975 73° East 502 578 45,000  Level Cleveland Center
14:08 41.0864 -79.0819 73° East 507 583 45,000  Level Cleveland Center
14:09 41.1258 -78.9028 74° East 505 581 45,000  Level Cleveland Center
14:10 41.1667 -78.7256 73° East 503 579 45,000  Level Cleveland Center
14:11 41.2069 -78.5433 74° East 512 589 45,000  Level Cleveland Center
14:12 41.2453 -78.3614 74° East 516 594 45,000  Level Cleveland Center
14:13 41.2833 -78.1831 74° East 512 589 45,000  Level Cleveland Center
14:14 41.3294 -77.9672 74° East 511 588 45,000  Level Cleveland Center
14:15 41.3678 -77.7869 74° East 510 587 45,000  Level Cleveland Center
14:17 41.4056 -77.6072 74° East 509 586 45,000  Level Cleveland Center
14:18 41.4422 -77.4269 75° East 509 586 45,000  Level Cleveland Center
14:19 41.4800 -77.2483 74° East 506 582 45,000  Level Cleveland Center
14:20 41.5181 -77.0672 74° East 507 583 45,000  Level Cleveland Center
14:21 41.5619 -76.8489 75° East 510 587 45,000  Level Cleveland Center
14:22 41.5981 -76.6658 75° East 510 587 45,000  Level Cleveland Center
14:23 41.6317 -76.4975 75° East 511 588 45,000  Level Cleveland Center
14:24 41.6858 -76.2856 71° East 506 582 45,000  Level Cleveland Center
14:25 41.7517 -76.1203 62° Northeast 506 582 45,000 -600 Level Cleveland Center
14:26 41.8528 -75.8633 62° Northeast 502 578 43,500 -1,140 Descending Boston Center
14:27 41.9169 -75.6978 62° Northeast 500 575 42,000 -1,500 Descending Boston Center
14:28 41.9825 -75.5264 63° Northeast 510 587 40,500 -1,620 Descending Boston Center
14:30 42.0594 -75.3208 63° Northeast 512 589 38,700 -1,500 Descending Boston Center
14:31 42.0806 -75.1703 79° East 511 588 37,500 -1,440 Descending Boston Center
14:32 42.1019 -74.9569 82° East 513 590 35,800 -1,680 Descending Boston Center
14:33 42.1203 -74.7669 83° East 514 592 34,200 -2,040 Descending Boston Center
14:34 42.1389 -74.5739 83° East 516 594 31,700 -3,000 Descending Boston Center
14:35 42.1603 -74.3417 83° East 521 600 28,100 -3,060 Descending Boston Center
14:36 42.1803 -74.1478 82° East 525 604 25,500 -1,980 Descending Boston Center
14:37 42.1975 -73.9589 83° East 516 594 24,000 -840 Descending Boston Center
14:39 42.2308 -73.5817 83° East 501 577 23,000 -840 Descending Boston Center
14:40 42.2472 -73.3978 83° East 498 573 21,500 -1,440 Descending Boston Center
14:41 42.2614 -73.2275 84° East 493 567 20,100 -1,260 Descending Boston Center
14:42 42.1983 -73.0344 114° Southeast 471 542 19,000 -600 Descending Boston Center
14:43 42.1069 -72.9100 135° Southeast 470 541 19,000  Level Boston Center
14:44 42.0158 -72.7875 135° Southeast 466 536 19,000  Level Boston Center
14:45 41.9306 -72.6708 134° Southeast 464 534 19,000 -1,140 Level Boston Center
14:46 41.8442 -72.5117 126° Southeast 448 516 16,800 -2,220 Descending Boston Center
14:47 41.7733 -72.3844 127° Southeast 430 495 14,500 -2,280 Descending Boston Center
14:48 41.7064 -72.2661 127° Southeast 411 473 12,400 -1,740 Descending Boston Center
14:49 41.6358 -72.1408 127° Southeast 399 459 11,000 -780 Descending Boston Center
14:50 41.5772 -72.0383 127° Southeast 354 407 10,900 -900 Descending Boston Center
14:51 41.5322 -71.9275 118° Southeast 313 360 9,200 -1,620 Descending Boston Center
14:52 41.5025 -71.8375 114° Southeast 289 333 7,700 -1,500 Descending Boston Center
14:53 41.4689 -71.7389 114° Southeast 300 345 6,400 -1,380 Descending Boston Center
14:54 41.4347 -71.6431 115° Southeast 285 328 5,000 -720 Descending Boston Center
14:55 41.4158 -71.5469 105° East 241 277 5,000  Level Boston Center
14:56 41.4594 -71.4600 56° Northeast 255 293 5,000  Level Boston Center
14:57 41.4850 -71.3756 68° East 249 287 5,000 -120 Level Boston Center
14:58 41.4972 -71.2981 78° East 255 293 4,800 -720 Descending Boston Center
14:59 41.5189 -71.2025 73° East 250 288 3,700 -900 Descending Boston Center
15:00 41.5689 -71.1369 44° Northeast 224 258 3,000 -660 Descending Boston Center
15:01 41.6181 -71.0856 38° Northeast 214 246 2,300 -720 Descending Boston Center
15:02 41.6711 -71.0472 28° Northeast 216 249 1,600 -600 Descending Boston Center
15:03 41.7031 -71.0067 43° Northeast 156 180 1,100 -600 Descending Boston Center
15:04 41.6775 -70.9594 126° Southeast 142 163 300 -720 Descending Boston Center
15:06 41.6766 -70.9578 66° East  Level Estimated
15:13 41.6766 -70.9578 66° East  Level Estimated
15:14 41.6766 -70.9578 66° East  Level Estimated